Time;durP1;ratioP1;P1;durP2;ratioP2;P2;SDS_P1;SDS_P2;PMS_P1;PMS_P2;Temp;Humidity;BMP_temperature;BMP_pressure;BME280_temperature;BME280_humidity;BME280_pressure;Samples;Min_cycle;Max_cycle;Signal;HPM_P1;HPM_P2
2022/09/13 00:02:11;;;;;;;12.77;3.90;;;;;;;18.55;49.29;99452.38;5176568;27;20240;-61
2022/09/13 00:04:37;;;;;;;10.30;4.05;;;;;;;18.55;49.50;99449.69;5185327;27;20183;-63
2022/09/13 00:07:02;;;;;;;7.65;3.90;;;;;;;18.55;49.26;99453.22;5183984;27;20122;-61
2022/09/13 00:09:28;;;;;;;18.92;5.03;;;;;;;18.58;49.14;99444.00;5187617;27;20082;-62
2022/09/13 00:11:53;;;;;;;7.97;3.45;;;;;;;18.58;49.07;99446.66;5186789;27;20022;-63
2022/09/13 00:14:19;;;;;;;8.60;3.47;;;;;;;18.59;49.26;99445.66;5186578;27;20042;-62
2022/09/13 00:16:44;;;;;;;6.10;3.20;;;;;;;18.58;49.09;99439.47;5187255;27;20015;-62
2022/09/13 00:19:09;;;;;;;7.88;3.45;;;;;;;18.58;49.39;99433.25;5187288;27;20292;-63
2022/09/13 00:21:35;;;;;;;8.40;3.72;;;;;;;18.57;49.34;99440.50;5187458;27;20131;-62
2022/09/13 00:24:01;;;;;;;6.25;3.25;;;;;;;18.57;49.31;99437.81;5186711;27;20011;-61
2022/09/13 00:26:28;;;;;;;7.10;3.35;;;;;;;18.56;49.31;99438.81;5187302;27;20132;-62
2022/09/13 00:28:56;;;;;;;4.28;3.15;;;;;;;18.56;49.36;99438.81;5186377;27;20169;-61
2022/09/13 00:31:22;;;;;;;6.32;3.65;;;;;;;18.55;49.25;99429.09;5169407;27;20023;-62
2022/09/13 00:33:49;;;;;;;7.93;3.40;;;;;;;18.55;49.23;99430.94;5166758;27;20154;-63
2022/09/13 00:36:14;;;;;;;7.30;3.22;;;;;;;18.55;49.06;99428.25;5185072;27;20131;-62
2022/09/13 00:38:41;;;;;;;6.88;2.92;;;;;;;18.53;49.14;99431.13;5186273;27;20019;-62
2022/09/13 00:41:11;;;;;;;8.73;5.28;;;;;;;18.53;49.12;99427.63;5186975;27;20025;-63
2022/09/13 00:43:41;;;;;;;5.07;3.13;;;;;;;18.52;49.06;99425.94;5168680;27;20006;-62
2022/09/13 00:46:07;;;;;;;6.80;3.17;;;;;;;18.50;49.18;99431.47;5186913;27;20010;-63
2022/09/13 00:48:34;;;;;;;9.27;3.60;;;;;;;18.50;48.73;99431.47;5186195;27;20017;-62
2022/09/13 00:51:01;;;;;;;4.45;2.90;;;;;;;18.50;48.95;99436.00;5176884;27;20258;-62
2022/09/13 00:53:33;;;;;;;6.28;3.38;;;;;;;18.49;48.85;99424.44;5165884;27;20128;-63
2022/09/13 00:56:12;;;;;;;6.32;3.22;;;;;;;18.49;48.74;99431.66;5165912;27;20015;-63
2022/09/13 00:58:53;;;;;;;4.05;2.75;;;;;;;18.48;48.62;99438.84;5174234;27;20035;-62
2022/09/13 01:01:22;;;;;;;6.10;3.55;;;;;;;18.45;48.80;99425.81;5179444;27;20014;-64
2022/09/13 01:03:48;;;;;;;5.20;3.20;;;;;;;18.45;48.75;99425.81;5186564;27;20034;-63
2022/09/13 01:06:21;;;;;;;6.45;3.03;;;;;;;18.45;49.25;99425.81;5186533;27;20027;-62
2022/09/13 01:08:51;;;;;;;5.55;3.15;;;;;;;18.45;49.08;99431.19;5185762;27;20073;-63
2022/09/13 01:11:28;;;;;;;4.93;3.00;;;;;;;18.43;48.88;99433.19;5172239;27;20071;-64
2022/09/13 01:13:55;;;;;;;6.30;3.22;;;;;;;18.42;48.56;99434.19;5151601;27;20076;-62
2022/09/13 01:16:20;;;;;;;6.57;3.40;;;;;;;18.41;49.07;99427.97;5151559;27;20023;-61
2022/09/13 01:18:46;;;;;;;6.80;3.17;;;;;;;18.40;48.78;99425.50;5156083;27;20082;-62
2022/09/13 01:21:36;;;;;;;4.20;3.03;;;;;;;18.39;49.05;99427.31;5172380;27;20079;-64
2022/09/13 01:24:32;;;;;;;4.40;3.10;;;;;;;18.37;49.25;99426.69;5172119;27;20099;-62
2022/09/13 01:27:23;;;;;;;3.35;2.67;;;;;;;18.36;49.30;99426.84;5172209;27;20031;-63
2022/09/13 01:30:17;;;;;;;3.57;1.97;;;;;;;18.35;49.32;99427.84;5169247;27;20135;-63
2022/09/13 01:33:01;;;;;;;3.55;2.42;;;;;;;18.35;49.35;99417.13;5151197;27;20236;-64
2022/09/13 01:35:54;;;;;;;4.05;2.42;;;;;;;18.33;49.24;99420.00;5151238;27;20019;-63
2022/09/13 01:38:57;;;;;;;3.80;2.47;;;;;;;18.33;49.46;99419.16;5154086;27;20239;-63
2022/09/13 01:41:46;;;;;;;3.67;2.90;;;;;;;18.32;49.26;99422.84;5166014;27;20085;-64
2022/09/13 01:44:27;;;;;;;4.38;2.58;;;;;;;18.30;49.42;99423.88;5171823;27;20025;-63
2022/09/13 01:47:11;;;;;;;3.15;2.50;;;;;;;18.30;49.01;99421.19;5171821;27;20090;-62
2022/09/13 01:50:07;;;;;;;6.38;2.55;;;;;;;18.28;49.09;99415.16;5171120;27;20230;-63
2022/09/13 01:52:41;;;;;;;4.53;2.67;;;;;;;18.27;49.28;99410.81;5171641;27;20075;-63
2022/09/13 01:55:19;;;;;;;4.53;3.08;;;;;;;18.28;49.13;99415.16;5171933;27;20014;-62
2022/09/13 01:58:28;;;;;;;7.95;2.70;;;;;;;18.26;49.31;99409.16;5170725;27;20034;-62
2022/09/13 02:00:53;;;;;;;3.63;2.70;;;;;;;18.26;49.44;99406.47;5138015;27;20035;-62
2022/09/13 02:03:52;;;;;;;6.18;2.92;;;;;;;18.25;49.24;99412.84;5171448;27;20187;-63
2022/09/13 02:06:24;;;;;;;4.50;2.42;;;;;;;18.25;49.04;99403.94;5171416;27;20025;-63
2022/09/13 02:08:59;;;;;;;;;;;;;;;18.18;49.23;99411.84;5171518;27;20014;-65
2022/09/13 02:11:25;;;;;;;3.47;2.10;;;;;;;18.20;49.24;99395.63;5171321;27;19895;-64
2022/09/13 02:14:06;;;;;;;3.65;2.75;;;;;;;18.23;49.53;99411.34;5171209;27;20022;-62
2022/09/13 02:16:39;;;;;;;4.30;2.55;;;;;;;18.22;49.45;99398.97;5170482;27;20038;-62
2022/09/13 02:19:16;;;;;;;3.50;2.42;;;;;;;18.21;49.34;99406.16;5150247;27;20022;-63
2022/09/13 02:21:46;;;;;;;3.95;2.63;;;;;;;18.21;49.37;99400.78;5149300;27;20212;-64
2022/09/13 02:24:19;;;;;;;4.40;2.73;;;;;;;18.20;49.43;99399.13;5150175;27;20060;-63
2022/09/13 02:26:50;;;;;;;5.45;2.97;;;;;;;18.20;49.69;99398.31;5168903;27;20056;-62
2022/09/13 02:29:20;;;;;;;2.65;2.03;;;;;;;18.20;49.65;99399.13;5171240;27;20038;-63
2022/09/13 02:32:02;;;;;;;5.30;3.13;;;;;;;18.20;49.39;99403.66;5170991;27;20029;-64
2022/09/13 02:34:42;;;;;;;5.15;2.88;;;;;;;18.20;49.69;99409.00;5170904;27;20022;-63
2022/09/13 02:37:09;;;;;;;13.07;3.40;;;;;;;18.18;49.91;99393.09;5170358;27;20049;-62
2022/09/13 02:39:40;;;;;;;4.30;3.17;;;;;;;18.20;49.96;99398.31;5170348;27;20038;-63
2022/09/13 02:42:27;;;;;;;4.22;3.10;;;;;;;18.20;50.03;99407.16;5170692;27;20219;-64
2022/09/13 02:44:55;;;;;;;3.72;2.85;;;;;;;18.20;50.23;99396.44;5170680;27;20072;-62
2022/09/13 02:47:29;;;;;;;4.50;3.38;;;;;;;18.20;50.17;99388.41;5170510;27;20041;-64
2022/09/13 02:50:03;;;;;;;6.35;3.13;;;;;;;18.20;50.17;99392.94;5169893;27;20011;-64
2022/09/13 02:52:46;;;;;;;7.75;2.90;;;;;;;18.19;50.24;99397.44;5149718;27;20168;-63
2022/09/13 02:55:20;;;;;;;4.93;3.92;;;;;;;18.18;50.24;99395.78;5149713;27;20064;-64
2022/09/13 02:58:03;;;;;;;5.50;3.08;;;;;;;18.18;50.10;99389.59;5153201;27;20038;-64
2022/09/13 03:00:29;;;;;;;4.35;3.17;;;;;;;18.16;49.99;99381.72;5170385;27;20022;-64
2022/09/13 03:02:58;;;;;;;4.45;2.85;;;;;;;18.16;49.88;99389.75;5170108;27;20026;-62
2022/09/13 03:05:24;;;;;;;4.35;3.30;;;;;;;18.15;49.89;99382.75;5170156;27;20059;-62
2022/09/13 03:07:51;;;;;;;4.28;3.40;;;;;;;18.16;50.00;99381.72;5169657;27;20026;-63
2022/09/13 03:10:17;;;;;;;4.90;3.05;;;;;;;18.15;50.00;99375.56;5169984;27;20017;-64
2022/09/13 03:12:45;;;;;;;4.22;2.83;;;;;;;18.15;49.72;99380.91;5170249;27;20010;-64
2022/09/13 03:15:22;;;;;;;4.40;2.80;;;;;;;18.16;49.91;99381.72;5169972;27;20046;-65
2022/09/13 03:18:15;;;;;;;4.60;3.53;;;;;;;18.15;49.78;99382.75;5169168;27;20021;-62
2022/09/13 03:20:49;;;;;;;4.07;3.08;;;;;;;18.16;49.85;99373.69;5169939;27;20010;-64
2022/09/13 03:23:38;;;;;;;4.57;2.50;;;;;;;18.14;49.93;99378.41;5168895;27;20011;-65
2022/09/13 03:26:32;;;;;;;5.68;2.80;;;;;;;18.13;49.36;99374.88;5169608;27;20029;-64
2022/09/13 03:29:09;;;;;;;4.70;3.25;;;;;;;18.13;49.65;99377.56;5169702;27;20049;-63
2022/09/13 03:31:40;;;;;;;5.13;3.25;;;;;;;18.13;49.78;99369.53;5169847;27;20053;-64
2022/09/13 03:34:29;;;;;;;5.45;3.00;;;;;;;18.15;49.37;99372.06;5169094;27;20018;-64
2022/09/13 03:37:01;;;;;;;4.13;2.90;;;;;;;18.13;49.11;99369.53;5151584;27;20151;-63
2022/09/13 03:39:44;;;;;;;4.25;2.95;;;;;;;18.15;49.21;99382.75;5169655;27;20087;-63
2022/09/13 03:42:17;;;;;;;4.65;2.60;;;;;;;18.14;49.40;99373.06;5169640;27;20054;-64
2022/09/13 03:44:47;;;;;;;3.60;2.70;;;;;;;18.14;49.30;99379.22;5169281;27;20277;-64
2022/09/13 03:47:15;;;;;;;4.68;3.58;;;;;;;18.17;49.13;99374.53;5169502;27;20236;-64
2022/09/13 03:49:40;;;;;;;5.65;3.05;;;;;;;18.17;48.80;99378.03;5169248;27;20019;-64
2022/09/13 03:52:06;;;;;;;5.28;3.03;;;;;;;18.16;48.66;99365.66;5168430;27;20018;-63
2022/09/13 03:54:36;;;;;;;4.88;3.22;;;;;;;18.19;48.70;99369.84;5169552;27;20015;-62
2022/09/13 03:57:15;;;;;;;4.53;3.67;;;;;;;18.20;47.97;99367.00;5169418;27;20037;-65
2022/09/13 03:59:49;;;;;;;5.38;4.13;;;;;;;18.21;48.05;99367.84;5168995;27;20046;-63
2022/09/13 04:02:16;;;;;;;6.57;3.60;;;;;;;18.22;47.68;99358.81;5153538;27;20028;-64
2022/09/13 04:04:43;;;;;;;5.70;3.60;;;;;;;18.23;47.36;99361.28;5169429;27;20022;-63
2022/09/13 04:07:10;;;;;;;4.53;3.00;;;;;;;18.25;47.42;99371.81;5169280;27;20019;-62
2022/09/13 04:09:36;;;;;;;4.00;3.40;;;;;;;18.24;47.87;99368.31;5168771;27;20074;-63
2022/09/13 04:12:02;;;;;;;6.60;3.28;;;;;;;18.27;47.57;99367.97;5169540;27;20030;-64
2022/09/13 04:14:27;;;;;;;6.95;3.92;;;;;;;18.28;47.12;99364.28;5169406;27;20015;-65
2022/09/13 04:16:54;;;;;;;4.43;3.35;;;;;;;18.30;47.07;99362.28;5169248;27;20018;-63
2022/09/13 04:19:21;;;;;;;6.97;3.92;;;;;;;18.33;46.58;99366.44;5153126;27;20113;-63
2022/09/13 04:21:50;;;;;;;5.95;3.15;;;;;;;18.38;46.35;99363.22;5148566;28;20037;-62
2022/09/13 04:24:17;;;;;;;6.00;3.75;;;;;;;18.38;46.53;99372.06;5166806;27;20086;-62
2022/09/13 04:26:43;;;;;;;6.47;3.90;;;;;;;18.40;46.07;99371.91;5169264;27;20015;-62
2022/09/13 04:29:10;;;;;;;5.25;3.40;;;;;;;18.41;45.80;99373.59;5169125;27;20208;-64
2022/09/13 04:31:36;;;;;;;7.25;3.53;;;;;;;18.43;45.63;99361.69;5169198;27;20042;-62
2022/09/13 04:34:02;;;;;;;5.35;3.47;;;;;;;18.44;45.67;99362.53;5168778;27;20062;-62
2022/09/13 04:36:28;;;;;;;4.35;3.63;;;;;;;18.48;45.42;99368.38;5169183;27;20026;-63
2022/09/13 04:38:53;;;;;;;6.20;4.30;;;;;;;18.48;45.17;99361.16;5168656;27;20018;-64
2022/09/13 04:41:19;;;;;;;5.25;3.45;;;;;;;18.49;45.30;99370.03;5168957;27;20042;-63
2022/09/13 04:43:49;;;;;;;4.95;3.70;;;;;;;18.50;45.08;99372.53;5159514;27;20014;-64
2022/09/13 04:46:14;;;;;;;5.18;3.03;;;;;;;18.50;45.15;99369.84;5151917;27;20015;-63
2022/09/13 04:48:40;;;;;;;5.05;3.53;;;;;;;18.51;45.05;99376.88;5164466;27;20247;-64
2022/09/13 04:51:05;;;;;;;8.15;3.35;;;;;;;18.50;45.25;99377.06;5172799;27;20124;-63
2022/09/13 04:53:31;;;;;;;9.20;3.88;;;;;;;18.50;45.50;99382.41;5172398;27;20270;-63
2022/09/13 04:56:01;;;;;;;6.38;3.67;;;;;;;18.49;45.60;99372.72;5172350;27;20015;-64
2022/09/13 04:58:26;;;;;;;5.03;3.78;;;;;;;18.50;45.90;99380.56;5171284;27;20030;-65
2022/09/13 05:00:55;;;;;;;6.43;3.92;;;;;;;18.48;46.09;99363.81;5172317;27;20030;-63
2022/09/13 05:03:21;;;;;;;4.47;3.03;;;;;;;18.48;45.82;99385.25;5172513;27;20136;-65
2022/09/13 05:05:47;;;;;;;7.13;3.85;;;;;;;18.48;45.93;99381.75;5172595;27;20057;-63
2022/09/13 05:08:12;;;;;;;5.35;3.30;;;;;;;18.46;46.13;99381.91;5172104;27;20218;-64
2022/09/13 05:10:38;;;;;;;4.78;3.42;;;;;;;18.44;46.38;99387.47;5172537;27;20133;-64
2022/09/13 05:13:04;;;;;;;6.60;4.00;;;;;;;18.43;46.36;99390.31;5172169;27;20219;-64
2022/09/13 05:15:29;;;;;;;5.72;3.40;;;;;;;18.43;46.18;99388.47;5171991;27;20026;-64
2022/09/13 05:17:54;;;;;;;5.43;3.90;;;;;;;18.41;46.50;99379.78;5172220;27;20081;-63
2022/09/13 05:20:20;;;;;;;5.88;4.13;;;;;;;18.42;46.13;99391.34;5172356;27;20067;-64
2022/09/13 05:22:45;;;;;;;8.07;4.15;;;;;;;18.40;46.71;99385.31;5171990;27;20022;-64
2022/09/13 05:25:11;;;;;;;5.20;3.78;;;;;;;18.40;46.67;99382.63;5171299;27;20050;-63
2022/09/13 05:27:36;;;;;;;5.18;3.50;;;;;;;18.39;46.87;99386.31;5171682;27;20014;-62
2022/09/13 05:30:02;;;;;;;4.57;3.22;;;;;;;18.40;46.88;99374.59;5172143;27;20018;-62
2022/09/13 05:32:30;;;;;;;5.10;3.50;;;;;;;18.41;47.06;99376.28;5172009;27;20023;-63
2022/09/13 05:34:56;;;;;;;6.32;3.53;;;;;;;18.40;46.83;99382.63;5172066;27;20011;-64
2022/09/13 05:37:21;;;;;;;8.55;3.95;;;;;;;18.39;47.02;99387.13;5171766;27;20015;-64
2022/09/13 05:39:47;;;;;;;5.75;3.60;;;;;;;18.40;47.37;99388.00;5171509;27;20023;-65
2022/09/13 05:42:12;;;;;;;5.40;4.07;;;;;;;18.38;46.96;99390.00;5167372;27;20034;-63
2022/09/13 05:44:38;;;;;;;6.80;4.10;;;;;;;18.38;47.02;99390.00;5169347;27;20085;-64
2022/09/13 05:47:04;;;;;;;7.20;4.30;;;;;;;18.38;46.84;99393.50;5171600;27;20015;-65
2022/09/13 05:49:30;;;;;;;7.88;4.53;;;;;;;18.39;46.93;99389.00;5171695;27;20063;-63
2022/09/13 05:51:55;;;;;;;6.35;4.43;;;;;;;18.38;46.91;99395.38;5171625;27;20419;-63
2022/09/13 05:54:21;;;;;;;5.20;4.15;;;;;;;18.38;46.91;99392.69;5171167;27;20042;-64
2022/09/13 05:56:46;;;;;;;6.25;3.95;;;;;;;18.38;46.88;99384.66;5171184;27;20014;-65
2022/09/13 05:59:13;;;;;;;6.57;4.18;;;;;;;18.39;47.07;99386.31;5171215;27;20031;-63
2022/09/13 06:01:39;;;;;;;5.28;3.70;;;;;;;18.40;46.62;99388.00;5171200;27;20023;-65
2022/09/13 06:04:04;;;;;;;11.50;4.45;;;;;;;18.39;46.58;99376.44;5161626;27;20053;-64
2022/09/13 06:06:30;;;;;;;8.88;4.32;;;;;;;18.39;46.59;99375.59;5171388;27;20235;-65
2022/09/13 06:08:56;;;;;;;5.40;4.00;;;;;;;18.41;46.20;99382.44;5165003;27;19999;-65
2022/09/13 06:11:23;;;;;;;10.95;3.90;;;;;;;18.40;45.86;99383.47;5160195;27;20081;-65
2022/09/13 06:13:49;;;;;;;7.15;4.03;;;;;;;18.42;46.19;99380.63;5171244;27;20014;-65
2022/09/13 06:16:15;;;;;;;5.65;4.15;;;;;;;18.41;47.16;99384.31;5171193;27;20035;-64
2022/09/13 06:18:41;;;;;;;8.20;3.33;;;;;;;18.43;47.97;99387.66;5170318;27;20320;-65
2022/09/13 06:21:10;;;;;;;7.53;4.60;;;;;;;18.42;47.39;99376.09;5171154;27;20018;-64
2022/09/13 06:23:36;;;;;;;9.68;4.78;;;;;;;18.45;47.00;99382.94;5170420;27;20014;-65
2022/09/13 06:26:10;;;;;;;5.40;3.78;;;;;;;18.46;46.86;99387.28;5171206;27;20025;-64
2022/09/13 06:28:36;;;;;;;6.82;4.13;;;;;;;18.46;46.81;99387.28;5170944;27;20010;-65
2022/09/13 06:31:09;;;;;;;7.18;4.38;;;;;;;18.47;46.26;99391.63;5167072;27;20030;-64
2022/09/13 06:33:37;;;;;;;7.47;4.57;;;;;;;18.47;45.87;99383.59;5149961;27;20015;-63
2022/09/13 06:36:05;;;;;;;12.73;4.32;;;;;;;18.48;45.72;99379.06;5158439;27;20074;-65
2022/09/13 06:38:31;;;;;;;8.60;4.45;;;;;;;18.47;45.62;99378.22;5170174;27;20226;-64
2022/09/13 06:41:05;;;;;;;9.40;4.07;;;;;;;18.49;45.71;99380.75;5170817;27;20069;-65
2022/09/13 06:43:31;;;;;;;9.38;4.47;;;;;;;18.52;45.80;99383.09;5170673;27;20018;-64
2022/09/13 06:46:01;;;;;;;6.72;4.18;;;;;;;18.51;45.46;99376.88;5169820;27;20017;-63
2022/09/13 06:48:30;;;;;;;6.38;4.28;;;;;;;18.51;45.51;99371.50;5170318;27;20023;-63
2022/09/13 06:50:58;;;;;;;6.70;4.25;;;;;;;18.52;45.24;99372.38;5170634;27;20014;-64
2022/09/13 06:53:23;;;;;;;6.82;3.78;;;;;;;18.52;45.15;99372.38;5170406;27;20064;-65
2022/09/13 06:55:48;;;;;;;7.40;4.63;;;;;;;18.52;45.24;99367.81;5170171;27;20018;-64
2022/09/13 06:58:14;;;;;;;9.15;4.28;;;;;;;18.51;45.30;99371.50;5170076;27;20019;-64
2022/09/13 07:00:39;;;;;;;8.32;4.20;;;;;;;18.52;44.98;99367.81;5170375;27;20048;-62
2022/09/13 07:03:05;;;;;;;5.78;3.60;;;;;;;18.53;45.16;99366.81;5170198;27;20026;-62
2022/09/13 07:05:30;;;;;;;7.00;4.55;;;;;;;18.52;45.15;99370.50;5170379;27;20018;-64
2022/09/13 07:07:56;;;;;;;8.10;4.40;;;;;;;18.54;45.22;99368.50;5169503;27;20128;-65
2022/09/13 07:10:21;;;;;;;6.05;4.35;;;;;;;18.54;45.14;99362.28;5170232;27;20071;-64
2022/09/13 07:12:46;;;;;;;6.85;3.88;;;;;;;18.56;45.13;99360.25;5151782;27;20019;-64
2022/09/13 07:15:12;;;;;;;5.35;4.07;;;;;;;18.56;44.88;99353.06;5170006;27;20074;-65
2022/09/13 07:17:37;;;;;;;5.55;4.00;;;;;;;18.58;44.97;99352.88;5170209;27;20021;-63
2022/09/13 07:20:05;;;;;;;8.60;3.90;;;;;;;18.59;44.69;99352.72;5152471;27;20086;-63
2022/09/13 07:22:31;;;;;;;5.80;3.95;;;;;;;18.61;44.24;99350.66;5169984;27;20025;-63
2022/09/13 07:24:56;;;;;;;7.10;4.32;;;;;;;18.63;44.22;99344.31;5169472;27;20220;-64
2022/09/13 07:27:22;;;;;;;7.97;4.13;;;;;;;18.64;44.49;99349.50;5169436;27;20214;-63
2022/09/13 07:29:47;;;;;;;6.50;4.20;;;;;;;18.66;44.63;99354.69;5169226;27;20285;-63
2022/09/13 07:32:13;;;;;;;7.30;4.47;;;;;;;18.67;44.35;99351.84;5169834;27;20019;-62
2022/09/13 07:34:38;;;;;;;6.53;4.57;;;;;;;18.70;44.18;99345.28;5169732;27;20090;-65
2022/09/13 07:37:04;;;;;;;7.30;4.65;;;;;;;18.72;44.20;99343.25;5169318;27;20095;-63
2022/09/13 07:39:29;;;;;;;8.02;3.97;;;;;;;18.74;44.06;99338.56;5169655;27;20188;-65
2022/09/13 07:41:55;;;;;;;20.00;4.35;;;;;;;18.78;43.79;99336.34;5169700;27;20266;-64
2022/09/13 07:44:20;;;;;;;10.18;4.57;;;;;;;18.79;43.74;99330.78;5168949;27;20086;-64
2022/09/13 07:46:45;;;;;;;8.30;4.90;;;;;;;18.80;43.83;99323.59;5169589;27;20169;-64
2022/09/13 07:49:13;;;;;;;7.50;4.40;;;;;;;18.82;43.84;99327.75;5169526;27;20030;-64
2022/09/13 07:51:41;;;;;;;6.65;3.53;;;;;;;18.83;43.84;99328.56;5169333;27;20026;-63
2022/09/13 07:54:11;;;;;;;8.75;4.15;;;;;;;18.83;43.82;99329.44;5169067;27;20014;-63
2022/09/13 07:56:38;;;;;;;7.07;5.20;;;;;;;18.83;43.96;99324.06;5149374;27;20054;-64
2022/09/13 07:59:06;;;;;;;6.75;3.50;;;;;;;18.85;44.09;99315.84;5148487;27;20035;-65
2022/09/13 08:01:49;;;;;;;7.43;4.28;;;;;;;18.84;43.74;99320.38;5151701;27;20015;-64
2022/09/13 08:04:17;;;;;;;9.30;3.70;;;;;;;18.83;43.92;99321.38;5168945;27;20165;-64
2022/09/13 08:06:43;;;;;;;5.43;3.35;;;;;;;18.83;44.15;99312.50;5168822;27;20235;-62
2022/09/13 08:09:09;;;;;;;6.22;3.50;;;;;;;18.84;43.98;99319.53;5169321;27;20034;-63
2022/09/13 08:11:38;;;;;;;5.80;3.70;;;;;;;18.85;43.93;99310.47;5145888;27;20014;-63
2022/09/13 08:14:05;;;;;;;8.13;3.65;;;;;;;18.83;44.02;99309.81;5168571;27;20086;-64
2022/09/13 08:16:31;;;;;;;5.15;3.33;;;;;;;18.83;43.87;99304.44;5169326;27;20086;-63
2022/09/13 08:19:00;;;;;;;5.40;3.10;;;;;;;18.84;44.18;99306.13;5169480;27;20018;-63
2022/09/13 08:21:26;;;;;;;8.07;3.20;;;;;;;18.83;44.24;99302.63;5173023;27;20007;-63
2022/09/13 08:23:58;;;;;;;6.70;3.60;;;;;;;18.83;44.45;99309.81;5170576;27;20017;-62
2022/09/13 08:26:24;;;;;;;7.22;3.67;;;;;;;18.84;44.22;99306.13;5155662;27;20019;-63
2022/09/13 08:28:55;;;;;;;10.23;3.15;;;;;;;18.83;44.59;99310.66;5158422;27;20025;-63
2022/09/13 08:31:21;;;;;;;6.50;3.78;;;;;;;18.83;44.15;99307.13;5173300;27;20053;-62
2022/09/13 08:33:47;;;;;;;7.20;4.28;;;;;;;18.81;44.03;99301.97;5172248;27;20094;-62
2022/09/13 08:36:13;;;;;;;6.35;3.78;;;;;;;18.83;43.98;99301.78;5173236;27;20022;-64
2022/09/13 08:38:39;;;;;;;5.75;3.15;;;;;;;18.82;44.22;99298.28;5172018;27;20026;-63
2022/09/13 08:41:30;;;;;;;7.35;3.40;;;;;;;18.81;44.40;99293.91;5173110;27;20017;-64
2022/09/13 08:44:11;;;;;;;8.50;4.53;;;;;;;18.82;44.11;99295.59;5166711;27;20011;-64
2022/09/13 08:46:40;;;;;;;17.30;7.25;;;;;;;18.82;44.42;99292.91;5155253;27;20018;-64
2022/09/13 08:49:30;;;;;;;18.83;7.93;;;;;;;18.83;44.37;99280.31;5172523;27;20246;-64
2022/09/13 08:52:04;;;;;;;21.00;7.95;;;;;;;18.82;43.92;99279.50;5172337;27;20026;-63
2022/09/13 08:54:29;;;;;;;16.30;7.32;;;;;;;18.83;43.44;99264.25;5172746;27;20227;-63
2022/09/13 08:57:07;;;;;;;12.43;5.05;;;;;;;18.82;42.88;99268.78;5170635;27;20054;-63
2022/09/13 09:00:04;;;;;;;33.35;11.30;;;;;;;18.82;44.12;99267.97;5172293;27;20038;-62
2022/09/13 09:02:58;;;;;;;20.92;9.07;;;;;;;18.82;44.10;99271.47;5168714;27;20188;-63
2022/09/13 09:05:28;;;;;;;21.50;6.38;;;;;;;18.82;43.47;99274.16;5170342;27;20010;-64
2022/09/13 09:08:01;;;;;;;38.63;13.05;;;;;;;18.83;44.02;99266.94;5171428;27;20018;-66
2022/09/13 09:10:31;;;;;;;31.30;12.32;;;;;;;18.84;44.32;99264.09;5167425;27;20045;-63
2022/09/13 09:13:29;;;;;;;29.35;10.43;;;;;;;18.84;43.96;99256.03;5164824;27;20070;-65
2022/09/13 09:16:04;;;;;;;30.42;11.48;;;;;;;18.82;43.85;99246.53;5167104;27;20011;-64
2022/09/13 09:18:31;;;;;;;37.25;14.85;;;;;;;18.85;44.25;99251.50;5166968;27;20137;-64
2022/09/13 09:20:59;;;;;;;23.67;9.80;;;;;;;18.87;43.57;99258.38;5169503;27;20025;-66
2022/09/13 09:23:52;;;;;;;32.80;13.13;;;;;;;18.86;43.24;99245.13;5167724;27;20014;-63
2022/09/13 09:26:22;;;;;;;37.25;13.25;;;;;;;18.92;43.66;99247.09;5169090;27;20089;-65
2022/09/13 09:29:00;;;;;;;31.33;13.20;;;;;;;18.93;43.97;99238.03;5170151;27;20136;-65
2022/09/13 09:31:44;;;;;;;19.13;8.98;;;;;;;18.95;43.55;99243.22;5163798;27;20109;-65
2022/09/13 09:34:16;;;;;;;45.42;17.73;;;;;;;18.98;44.20;99237.50;5162259;27;20039;-65
2022/09/13 09:36:53;;;;;;;24.13;9.98;;;;;;;18.99;43.67;99242.69;5164944;27;20018;-68
2022/09/13 09:39:19;;;;;;;34.40;14.07;;;;;;;19.01;43.87;99234.47;5170422;27;20034;-64
2022/09/13 09:41:44;;;;;;;43.58;16.77;;;;;;;19.05;44.33;99238.44;5168294;27;20029;-66
2022/09/13 09:44:21;;;;;;;23.52;9.85;;;;;;;19.05;43.91;99227.69;5163507;27;20026;-65
2022/09/13 09:47:03;;;;;;;29.20;12.68;;;;;;;19.06;43.75;99222.16;5167038;27;20010;-68
2022/09/13 09:50:08;;;;;;;35.42;15.35;;;;;;;19.08;44.16;99230.03;5166200;27;20015;-63
2022/09/13 09:53:15;;;;;;;32.55;16.13;;;;;;;19.09;44.11;99225.50;5130086;27;20056;-67
2022/09/13 09:55:50;;;;;;;33.63;12.65;;;;;;;19.10;44.09;99219.13;5169037;27;20026;-64
2022/09/13 09:58:17;;;;;;;27.73;11.07;;;;;;;19.11;43.98;99224.28;5166272;27;20127;-65
2022/09/13 10:00:51;;;;;;;13.38;5.13;;;;;;;19.12;42.91;99222.44;5162588;27;20026;-65
2022/09/13 10:03:28;;;;;;;30.77;12.63;;;;;;;19.13;43.25;99221.41;5167023;27;20026;-65
2022/09/13 10:06:09;;;;;;;25.77;9.70;;;;;;;19.14;43.40;99221.25;5164218;27;20026;-65
2022/09/13 10:08:37;;;;;;;24.48;9.60;;;;;;;19.16;43.45;99223.75;5168031;27;20011;-63
2022/09/13 10:11:04;;;;;;;12.63;4.43;;;;;;;19.16;42.69;99211.19;5170699;27;20029;-64
2022/09/13 10:13:31;;;;;;;17.42;6.82;;;;;;;19.15;42.36;99209.50;5169778;27;20034;-65
2022/09/13 10:16:00;;;;;;;9.15;4.57;;;;;;;19.15;42.09;99217.56;5170980;27;20098;-65
2022/09/13 10:18:28;;;;;;;25.17;8.25;;;;;;;19.16;42.48;99226.41;5170765;27;20164;-64
2022/09/13 10:21:11;;;;;;;26.45;10.20;;;;;;;19.16;42.59;99215.69;5170339;27;20039;-65
2022/09/13 10:23:38;;;;;;;25.38;10.13;;;;;;;19.16;43.05;99210.31;5170994;27;20077;-67
2022/09/13 10:26:10;;;;;;;21.55;9.93;;;;;;;19.16;43.50;99213.84;5171051;27;20068;-69
2022/09/13 10:28:55;;;;;;;10.45;4.53;;;;;;;19.16;42.40;99211.19;5170982;27;20019;-66
2022/09/13 10:31:28;;;;;;;10.38;3.50;;;;;;;19.15;42.12;99214.03;5170260;27;20018;-66
2022/09/13 10:34:01;;;;;;;4.75;1.60;;;;;;;19.13;41.18;99211.53;5170796;27;20018;-64
2022/09/13 10:36:36;;;;;;;15.95;7.38;;;;;;;19.12;41.55;99201.81;5170936;27;20147;-66
2022/09/13 10:39:05;;;;;;;18.73;8.70;;;;;;;19.13;42.36;99200.81;5170345;27;20178;-66
2022/09/13 10:41:37;;;;;;;5.00;1.83;;;;;;;19.14;41.05;99199.78;5170812;27;20179;-64
2022/09/13 10:44:06;;;;;;;14.82;7.13;;;;;;;19.12;41.57;99196.47;5169880;27;20029;-64
2022/09/13 10:46:36;;;;;;;13.90;6.15;;;;;;;19.12;41.79;99187.56;5170678;27;20014;-64
2022/09/13 10:49:02;;;;;;;12.77;6.78;;;;;;;19.11;41.87;99194.81;5170236;27;20034;-67
2022/09/13 10:51:30;;;;;;;16.98;7.53;;;;;;;19.10;41.71;99185.09;5170564;27;20147;-63
2022/09/13 10:54:14;;;;;;;9.48;5.22;;;;;;;19.11;41.50;99185.94;5170446;27;20041;-67
2022/09/13 10:56:41;;;;;;;18.55;7.15;;;;;;;19.09;41.60;99174.56;5170497;27;20035;-64
2022/09/13 10:59:23;;;;;;;13.10;5.40;;;;;;;19.09;41.73;99178.06;5168309;27;20346;-66
2022/09/13 11:02:17;;;;;;;16.23;8.38;;;;;;;19.10;42.10;99170.88;5169436;27;20027;-65
2022/09/13 11:05:05;;;;;;;9.82;5.25;;;;;;;19.08;41.93;99183.63;5095767;27;20129;-66
2022/09/13 11:08:04;;;;;;;12.77;5.82;;;;;;;19.08;41.80;99180.94;5170261;27;20139;-64
2022/09/13 11:11:11;;;;;;;10.05;3.67;;;;;;;19.05;41.49;99177.59;5155087;27;20038;-66
2022/09/13 11:13:51;;;;;;;16.48;5.40;;;;;;;19.05;41.30;99174.91;5148811;27;20022;-64
2022/09/13 11:16:35;;;;;;;7.38;4.15;;;;;;;19.05;41.23;99169.56;5170171;27;20082;-65
2022/09/13 11:19:22;;;;;;;8.32;3.80;;;;;;;19.04;41.08;99164.41;5169790;27;20081;-68
2022/09/13 11:22:09;;;;;;;13.15;5.22;;;;;;;19.05;41.53;99166.03;5169812;27;20124;-64
2022/09/13 11:25:12;;;;;;;11.05;5.97;;;;;;;19.04;41.96;99161.72;5168755;27;20014;-65
2022/09/13 11:28:08;;;;;;;7.38;4.07;;;;;;;19.05;41.80;99166.03;5134902;27;20139;-65
2022/09/13 11:30:47;;;;;;;14.35;4.65;;;;;;;19.05;42.04;99155.31;5169879;27;20037;-65
2022/09/13 11:33:19;;;;;;;11.32;3.97;;;;;;;19.05;41.75;99156.16;5169733;27;20042;-67
2022/09/13 11:36:10;;;;;;;12.60;5.18;;;;;;;19.06;42.14;99154.28;5169315;27;20054;-66
2022/09/13 11:38:57;;;;;;;8.10;4.28;;;;;;;19.06;42.17;99151.59;5166928;27;20026;-63
2022/09/13 11:41:52;;;;;;;11.07;4.05;;;;;;;19.06;42.15;99151.59;5169006;27;20271;-66
2022/09/13 11:44:54;;;;;;;6.45;3.13;;;;;;;19.04;41.74;99140.25;5164338;27;20309;-66
2022/09/13 11:47:38;;;;;;;10.40;3.88;;;;;;;19.05;41.61;99137.38;5168982;27;20030;-65
2022/09/13 11:50:13;;;;;;;9.07;4.90;;;;;;;19.04;41.90;99140.25;5168145;27;20006;-64
2022/09/13 11:52:44;;;;;;;11.23;4.30;;;;;;;19.06;41.89;99140.88;5169656;27;20043;-63
2022/09/13 11:55:35;;;;;;;8.75;3.63;;;;;;;19.07;42.15;99139.88;5169150;27;20097;-65
2022/09/13 11:58:10;;;;;;;7.57;3.65;;;;;;;19.05;41.97;99144.56;5169202;27;20014;-65